Time;durP1;ratioP1;P1;durP2;ratioP2;P2;SDS_P1;SDS_P2;PMS_P1;PMS_P2;Temp;Humidity;BMP_temperature;BMP_pressure;BME280_temperature;BME280_humidity;BME280_pressure;Samples;Min_cycle;Max_cycle;Signal;HPM_P1;HPM_P2
2023/12/10 00:01:34;;;;;;;12.67;3.07;;;;;;;;;;4973792;28;20195;-85
2023/12/10 00:04:00;;;;;;;17.13;4.00;;;;;;;;;;4956265;28;20270;-84
2023/12/10 00:06:26;;;;;;;16.40;4.17;;;;;;;;;;4973081;28;20188;-84
2023/12/10 00:08:53;;;;;;;19.00;4.17;;;;;;;;;;4973899;28;20226;-84
2023/12/10 00:11:19;;;;;;;19.57;4.37;;;;;;;;;;4974379;28;20211;-84
2023/12/10 00:13:45;;;;;;;16.17;3.70;;;;;;;;;;4990247;28;20332;-84
2023/12/10 00:16:11;;;;;;;17.63;4.17;;;;;;;;;;4975588;28;20191;-84
2023/12/10 00:18:37;;;;;;;23.83;4.17;;;;;;;;;;4972658;28;20374;-84
2023/12/10 00:21:04;;;;;;;30.13;5.10;;;;;;;;;;4990392;28;20203;-84
2023/12/10 00:23:30;;;;;;;24.30;4.73;;;;;;;;;;4974179;28;20459;-84
2023/12/10 00:25:57;;;;;;;22.53;4.97;;;;;;;;;;4989051;28;20679;-84
2023/12/10 00:28:23;;;;;;;24.23;4.83;;;;;;;;;;4987606;28;20701;-84
2023/12/10 00:30:49;;;;;;;18.37;4.47;;;;;;;;;;4973334;28;20286;-84
2023/12/10 00:33:16;;;;;;;21.27;4.70;;;;;;;;;;4970516;28;20204;-84
2023/12/10 00:35:42;;;;;;;21.63;4.70;;;;;;;;;;4988703;28;20778;-84
2023/12/10 00:38:08;;;;;;;22.23;4.80;;;;;;;;;;4973040;28;20223;-85
2023/12/10 00:40:34;;;;;;;31.73;5.00;;;;;;;;;;4990050;28;20180;-84
2023/12/10 00:43:00;;;;;;;19.83;4.33;;;;;;;;;;4972057;28;20187;-84
2023/12/10 00:45:26;;;;;;;21.03;4.23;;;;;;;;;;4994705;28;20253;-84
2023/12/10 00:47:53;;;;;;;20.17;4.13;;;;;;;;;;4975403;28;20275;-84
2023/12/10 00:50:19;;;;;;;20.13;4.37;;;;;;;;;;4988095;28;20215;-84
2023/12/10 00:52:45;;;;;;;25.80;4.63;;;;;;;;;;4976475;28;20342;-84
2023/12/10 00:55:12;;;;;;;26.70;4.53;;;;;;;;;;4975660;28;20180;-84
2023/12/10 00:57:38;;;;;;;37.27;6.00;;;;;;;;;;4972736;28;20177;-84
2023/12/10 01:00:05;;;;;;;28.40;4.87;;;;;;;;;;4989039;28;20246;-84
2023/12/10 01:02:31;;;;;;;22.03;4.33;;;;;;;;;;4971995;28;20206;-84
2023/12/10 01:04:57;;;;;;;24.70;4.73;;;;;;;;;;4959007;28;20187;-84
2023/12/10 01:07:23;;;;;;;20.50;4.27;;;;;;;;;;4974783;28;20659;-84
2023/12/10 01:09:49;;;;;;;26.67;4.70;;;;;;;;;;4975525;28;20278;-84
2023/12/10 01:12:16;;;;;;;20.47;4.40;;;;;;;;;;4976148;28;20218;-84
2023/12/10 01:14:44;;;;;;;23.23;4.73;;;;;;;;;;4974822;28;20175;-84
2023/12/10 01:17:12;;;;;;;24.90;5.40;;;;;;;;;;4991727;28;20184;-84
2023/12/10 01:19:38;;;;;;;24.40;5.00;;;;;;;;;;4985879;28;20286;-84
2023/12/10 01:22:05;;;;;;;24.00;5.03;;;;;;;;;;4983268;28;20195;-83
2023/12/10 01:24:31;;;;;;;22.13;4.77;;;;;;;;;;4967989;28;20287;-84
2023/12/10 01:26:57;;;;;;;27.17;5.10;;;;;;;;;;4977856;28;20226;-84
2023/12/10 01:29:25;;;;;;;20.53;4.40;;;;;;;;;;4991802;28;20437;-84
2023/12/10 01:31:51;;;;;;;22.03;5.10;;;;;;;;;;4992161;28;20219;-84
2023/12/10 01:34:18;;;;;;;24.97;4.83;;;;;;;;;;4991791;28;20218;-84
2023/12/10 01:36:44;;;;;;;24.30;4.93;;;;;;;;;;4991493;28;20258;-84
2023/12/10 01:39:10;;;;;;;22.73;5.00;;;;;;;;;;4975514;28;20222;-84
2023/12/10 01:41:36;;;;;;;25.60;5.27;;;;;;;;;;4975723;28;20191;-84
2023/12/10 01:44:03;;;;;;;20.83;5.07;;;;;;;;;;4990581;28;20607;-84
2023/12/10 01:46:29;;;;;;;26.03;5.13;;;;;;;;;;4975510;28;20188;-84
2023/12/10 01:48:56;;;;;;;25.33;4.83;;;;;;;;;;4990549;28;20303;-84
2023/12/10 01:51:23;;;;;;;27.30;5.17;;;;;;;;;;4974292;28;20309;-84
2023/12/10 01:53:50;;;;;;;24.03;5.23;;;;;;;;;;4991368;28;20203;-84
2023/12/10 01:56:16;;;;;;;23.93;4.97;;;;;;;;;;4974845;28;20580;-84
2023/12/10 01:58:42;;;;;;;28.30;5.47;;;;;;;;;;4990400;28;20200;-84
2023/12/10 02:01:09;;;;;;;25.40;5.07;;;;;;;;;;4974535;28;20187;-84
2023/12/10 02:03:35;;;;;;;21.13;4.80;;;;;;;;;;4975099;28;20689;-85
2023/12/10 02:06:02;;;;;;;24.33;5.47;;;;;;;;;;4990488;28;20294;-84
2023/12/10 02:08:28;;;;;;;25.63;4.70;;;;;;;;;;4991376;28;20669;-84
2023/12/10 02:10:55;;;;;;;27.20;5.43;;;;;;;;;;4991975;28;20249;-84
2023/12/10 02:13:22;;;;;;;27.27;5.07;;;;;;;;;;4991484;28;20283;-84
2023/12/10 02:15:48;;;;;;;25.43;5.00;;;;;;;;;;4982504;28;20203;-84
2023/12/10 02:18:19;;;;;;;22.00;4.60;;;;;;;;;;4991833;28;20204;-84
2023/12/10 02:20:46;;;;;;;27.73;4.93;;;;;;;;;;4989227;28;20184;-84
2023/12/10 02:23:16;;;;;;;20.17;4.73;;;;;;;;;;4974576;28;20726;-84
2023/12/10 02:25:42;;;;;;;25.23;4.80;;;;;;;;;;4987728;28;20191;-84
2023/12/10 02:28:09;;;;;;;22.10;4.60;;;;;;;;;;4974797;28;20620;-84
2023/12/10 02:30:35;;;;;;;21.33;4.83;;;;;;;;;;4989841;28;20270;-84
2023/12/10 02:33:02;;;;;;;13.90;3.10;;;;;;;;;;4977122;28;20236;-84
2023/12/10 02:35:28;;;;;;;12.20;2.60;;;;;;;;;;4970990;28;20184;-84
2023/12/10 02:37:55;;;;;;;11.57;2.60;;;;;;;;;;4975172;28;20210;-84
2023/12/10 02:40:21;;;;;;;9.53;2.20;;;;;;;;;;4974348;28;20219;-83
2023/12/10 02:42:47;;;;;;;11.87;2.30;;;;;;;;;;4974917;28;20274;-84
2023/12/10 02:45:14;;;;;;;8.17;2.00;;;;;;;;;;4956813;28;20692;-83
2023/12/10 02:47:40;;;;;;;11.77;2.33;;;;;;;;;;4974521;28;20199;-83
2023/12/10 02:50:07;;;;;;;12.03;2.10;;;;;;;;;;4984923;28;20220;-84
2023/12/10 02:52:36;;;;;;;10.13;2.10;;;;;;;;;;4975015;28;20616;-84
2023/12/10 02:55:02;;;;;;;11.20;2.83;;;;;;;;;;4989991;28;20180;-84
2023/12/10 02:57:28;;;;;;;8.03;2.10;;;;;;;;;;4991951;28;20296;-83
2023/12/10 02:59:55;;;;;;;10.00;2.30;;;;;;;;;;4990286;28;20209;-84
2023/12/10 03:02:21;;;;;;;10.93;2.37;;;;;;;;;;4974859;28;20196;-84
2023/12/10 03:04:47;;;;;;;10.60;2.33;;;;;;;;;;4972863;28;20727;-83
2023/12/10 03:07:13;;;;;;;7.03;2.00;;;;;;;;;;4989403;28;20210;-82
2023/12/10 03:09:39;;;;;;;8.80;2.27;;;;;;;;;;4963059;28;20500;-84
2023/12/10 03:12:06;;;;;;;8.63;2.40;;;;;;;;;;4988207;28;20302;-84
2023/12/10 03:14:32;;;;;;;8.73;2.50;;;;;;;;;;4974503;28;20210;-83
2023/12/10 03:16:58;;;;;;;10.30;2.30;;;;;;;;;;4990613;28;20183;-84
2023/12/10 03:19:24;;;;;;;8.47;2.27;;;;;;;;;;4960764;28;20199;-83
2023/12/10 03:21:50;;;;;;;9.57;2.37;;;;;;;;;;4995384;28;20192;-84
2023/12/10 03:24:16;;;;;;;8.50;2.10;;;;;;;;;;4994609;28;20370;-83
2023/12/10 03:26:42;;;;;;;7.67;2.00;;;;;;;;;;4991721;28;20177;-83
2023/12/10 03:29:09;;;;;;;7.40;2.00;;;;;;;;;;4975251;28;20216;-83
2023/12/10 03:31:35;;;;;;;7.13;2.03;;;;;;;;;;4987400;28;20204;-83
2023/12/10 03:34:01;;;;;;;9.30;2.30;;;;;;;;;;4992377;28;20191;-83
2023/12/10 03:36:27;;;;;;;9.90;2.20;;;;;;;;;;4976045;28;20253;-83
2023/12/10 03:38:54;;;;;;;5.97;1.87;;;;;;;;;;4972530;28;20208;-85
2023/12/10 03:41:20;;;;;;;11.37;3.20;;;;;;;;;;4975671;28;20254;-85
2023/12/10 03:43:46;;;;;;;8.70;2.40;;;;;;;;;;4976760;28;20202;-83
2023/12/10 03:46:12;;;;;;;9.63;3.07;;;;;;;;;;4990297;28;20184;-83
2023/12/10 03:48:38;;;;;;;14.40;2.90;;;;;;;;;;4975474;28;20215;-83
2023/12/10 03:51:04;;;;;;;10.03;2.30;;;;;;;;;;4991023;28;20246;-83
2023/12/10 03:53:31;;;;;;;9.90;2.70;;;;;;;;;;4991532;28;20184;-83
2023/12/10 03:55:57;;;;;;;11.20;2.30;;;;;;;;;;4984159;28;20259;-83
2023/12/10 03:58:23;;;;;;;10.20;2.50;;;;;;;;;;4989926;28;20667;-83
2023/12/10 04:00:49;;;;;;;11.40;2.40;;;;;;;;;;4973807;28;20190;-83
2023/12/10 04:03:15;;;;;;;10.03;2.33;;;;;;;;;;4973600;28;20235;-83
2023/12/10 04:05:41;;;;;;;13.23;2.73;;;;;;;;;;4970416;28;20191;-83
2023/12/10 04:08:08;;;;;;;10.47;2.47;;;;;;;;;;4979017;28;20184;-83
2023/12/10 04:10:34;;;;;;;9.13;2.43;;;;;;;;;;4988192;28;20688;-83
2023/12/10 04:13:00;;;;;;;8.00;1.97;;;;;;;;;;4973866;28;20192;-83
2023/12/10 04:15:27;;;;;;;8.80;2.30;;;;;;;;;;4973182;28;20200;-83
2023/12/10 04:17:53;;;;;;;10.97;2.30;;;;;;;;;;4974028;28;20195;-83
2023/12/10 04:20:19;;;;;;;9.53;2.20;;;;;;;;;;4993205;28;20187;-83
2023/12/10 04:22:45;;;;;;;8.60;2.00;;;;;;;;;;4993248;28;20187;-83
2023/12/10 04:25:11;;;;;;;13.57;2.63;;;;;;;;;;4994080;28;20191;-83
2023/12/10 04:27:38;;;;;;;7.83;2.20;;;;;;;;;;4977599;28;20674;-83
2023/12/10 04:30:04;;;;;;;9.30;2.60;;;;;;;;;;4992940;28;20207;-83
2023/12/10 04:32:31;;;;;;;8.60;2.43;;;;;;;;;;4992014;28;20203;-84
2023/12/10 04:34:57;;;;;;;9.17;2.30;;;;;;;;;;4960020;28;20184;-83
2023/12/10 04:37:24;;;;;;;10.60;2.50;;;;;;;;;;4993530;28;20183;-83
2023/12/10 04:39:50;;;;;;;13.70;2.90;;;;;;;;;;4977732;28;20296;-84
2023/12/10 04:42:16;;;;;;;13.60;2.70;;;;;;;;;;4977423;28;20195;-83
2023/12/10 04:44:42;;;;;;;9.77;2.27;;;;;;;;;;4990977;28;20191;-84
2023/12/10 04:47:09;;;;;;;14.13;2.73;;;;;;;;;;4993035;28;20184;-83
2023/12/10 04:49:35;;;;;;;15.30;2.87;;;;;;;;;;4993037;28;20215;-83
2023/12/10 04:52:01;;;;;;;10.97;3.07;;;;;;;;;;4976298;28;20207;-84
2023/12/10 04:54:27;;;;;;;16.23;3.33;;;;;;;;;;4977108;28;20195;-83
2023/12/10 04:56:53;;;;;;;15.07;2.90;;;;;;;;;;4976941;28;20206;-83
2023/12/10 04:59:19;;;;;;;19.00;3.37;;;;;;;;;;4976161;28;20208;-84
2023/12/10 05:01:46;;;;;;;16.47;3.93;;;;;;;;;;4974819;28;20640;-84
2023/12/10 05:04:12;;;;;;;17.43;3.23;;;;;;;;;;4976439;28;20202;-83
2023/12/10 05:06:38;;;;;;;17.27;3.10;;;;;;;;;;4976389;28;20254;-83
2023/12/10 05:09:04;;;;;;;14.47;3.03;;;;;;;;;;4960449;28;20212;-84
2023/12/10 05:11:30;;;;;;;15.03;3.90;;;;;;;;;;4976696;28;20207;-84
2023/12/10 05:13:56;;;;;;;15.53;3.10;;;;;;;;;;4976123;28;20192;-83
2023/12/10 05:16:23;;;;;;;14.90;3.30;;;;;;;;;;4976142;28;20203;-84
2023/12/10 05:18:49;;;;;;;17.13;3.30;;;;;;;;;;4979375;28;20565;-83
2023/12/10 05:21:15;;;;;;;20.20;3.80;;;;;;;;;;4979162;28;20200;-83
2023/12/10 05:23:41;;;;;;;20.73;3.83;;;;;;;;;;4990913;28;20176;-84
2023/12/10 05:26:07;;;;;;;12.73;3.30;;;;;;;;;;4995937;28;20560;-83
2023/12/10 05:28:33;;;;;;;19.47;4.17;;;;;;;;;;4993999;28;20279;-83
2023/12/10 05:31:00;;;;;;;19.73;3.40;;;;;;;;;;4991735;28;20311;-84
2023/12/10 05:33:26;;;;;;;13.50;3.57;;;;;;;;;;4975448;28;20746;-83
2023/12/10 05:35:52;;;;;;;13.50;3.30;;;;;;;;;;4994421;28;20180;-83
2023/12/10 05:38:18;;;;;;;17.37;3.30;;;;;;;;;;4994170;28;20211;-83
2023/12/10 05:40:44;;;;;;;16.43;3.57;;;;;;;;;;4977719;28;20663;-83
2023/12/10 05:43:10;;;;;;;15.30;3.33;;;;;;;;;;4972962;28;20612;-83
2023/12/10 05:45:37;;;;;;;17.70;3.53;;;;;;;;;;4993778;28;20259;-84
2023/12/10 05:48:03;;;;;;;16.47;3.50;;;;;;;;;;4993004;28;20266;-83
2023/12/10 05:50:29;;;;;;;14.40;3.47;;;;;;;;;;4991851;28;20247;-83
2023/12/10 05:52:55;;;;;;;16.30;3.23;;;;;;;;;;4992505;28;20187;-84
2023/12/10 05:55:21;;;;;;;13.37;3.53;;;;;;;;;;4976297;28;20179;-84
2023/12/10 05:57:47;;;;;;;16.07;3.27;;;;;;;;;;4956892;28;20205;-83
2023/12/10 06:00:14;;;;;;;18.47;3.83;;;;;;;;;;4976635;28;20215;-83
2023/12/10 06:02:40;;;;;;;15.63;3.50;;;;;;;;;;4975660;28;20184;-83
2023/12/10 06:05:06;;;;;;;16.73;3.53;;;;;;;;;;4973814;28;20199;-83
2023/12/10 06:07:32;;;;;;;19.80;3.57;;;;;;;;;;4958982;28;20995;-83
2023/12/10 06:09:59;;;;;;;15.10;3.23;;;;;;;;;;4958211;28;20207;-84
2023/12/10 06:12:25;;;;;;;13.97;3.23;;;;;;;;;;4973813;28;20203;-84
2023/12/10 06:14:51;;;;;;;16.13;3.07;;;;;;;;;;4985836;28;20663;-83
2023/12/10 06:17:18;;;;;;;16.57;3.20;;;;;;;;;;4975138;28;20262;-83
2023/12/10 06:19:44;;;;;;;15.93;3.83;;;;;;;;;;4989713;28;20203;-83
2023/12/10 06:22:10;;;;;;;17.20;3.57;;;;;;;;;;4972803;28;20184;-83
2023/12/10 06:24:37;;;;;;;15.83;3.53;;;;;;;;;;4974744;28;20804;-83
2023/12/10 06:27:03;;;;;;;16.27;3.10;;;;;;;;;;4990105;28;20196;-83
2023/12/10 06:29:29;;;;;;;19.60;3.67;;;;;;;;;;4990164;28;20258;-83
2023/12/10 06:31:55;;;;;;;14.80;3.13;;;;;;;;;;4990663;28;20572;-83
2023/12/10 06:34:22;;;;;;;15.97;3.83;;;;;;;;;;5002998;28;20186;-82
2023/12/10 06:36:48;;;;;;;15.07;3.30;;;;;;;;;;4955172;28;20247;-82
2023/12/10 06:39:16;;;;;;;14.13;3.10;;;;;;;;;;4987871;28;20208;-82
2023/12/10 06:41:42;;;;;;;16.00;3.60;;;;;;;;;;4973117;28;20199;-84
2023/12/10 06:44:09;;;;;;;14.30;3.00;;;;;;;;;;4973132;28;20238;-82
2023/12/10 06:46:37;;;;;;;18.00;3.20;;;;;;;;;;4958048;28;20199;-81
2023/12/10 06:49:03;;;;;;;15.67;3.57;;;;;;;;;;4985056;28;20227;-84
2023/12/10 06:51:30;;;;;;;12.40;3.10;;;;;;;;;;4971578;28;20327;-85
2023/12/10 06:53:56;;;;;;;19.07;3.43;;;;;;;;;;4972169;28;20184;-79
2023/12/10 06:56:22;;;;;;;12.07;3.20;;;;;;;;;;4989695;28;20242;-78
2023/12/10 06:58:48;;;;;;;12.47;2.53;;;;;;;;;;4989623;28;20204;-78
2023/12/10 07:01:15;;;;;;;13.63;2.90;;;;;;;;;;4989611;28;20188;-78
2023/12/10 07:03:41;;;;;;;13.97;2.97;;;;;;;;;;4972602;28;20660;-78
2023/12/10 07:06:07;;;;;;;17.03;3.57;;;;;;;;;;4990052;28;20198;-81
2023/12/10 07:08:33;;;;;;;11.97;3.07;;;;;;;;;;4972635;28;20648;-80
2023/12/10 07:10:59;;;;;;;14.70;3.35;;;;;;;;;;4989778;28;20492;-80
2023/12/10 07:13:25;;;;;;;19.23;4.00;;;;;;;;;;4986531;28;20199;-79
2023/12/10 07:15:52;;;;;;;14.00;3.30;;;;;;;;;;4988913;28;20367;-80
2023/12/10 07:18:18;;;;;;;15.80;3.43;;;;;;;;;;4972063;28;20738;-78
2023/12/10 07:20:44;;;;;;;14.40;2.97;;;;;;;;;;4989297;28;20199;-78
2023/12/10 07:23:10;;;;;;;18.20;3.10;;;;;;;;;;4991035;28;20184;-78
2023/12/10 07:25:36;;;;;;;17.73;2.83;;;;;;;;;;4974128;28;20699;-78
2023/12/10 07:28:02;;;;;;;16.70;3.13;;;;;;;;;;4988647;28;20191;-77
2023/12/10 07:30:29;;;;;;;15.97;3.97;;;;;;;;;;4983464;28;20203;-78
2023/12/10 07:32:56;;;;;;;10.83;2.77;;;;;;;;;;4973965;28;20195;-78
2023/12/10 07:35:22;;;;;;;15.83;3.50;;;;;;;;;;4989378;28;20562;-78
2023/12/10 07:37:49;;;;;;;13.97;2.97;;;;;;;;;;4972669;28;20194;-78
2023/12/10 07:40:15;;;;;;;14.87;3.10;;;;;;;;;;4988407;28;20208;-78
2023/12/10 07:42:41;;;;;;;14.83;3.43;;;;;;;;;;4971890;28;20188;-78
2023/12/10 07:45:07;;;;;;;12.30;2.50;;;;;;;;;;4990807;28;20180;-78
2023/12/10 07:47:34;;;;;;;15.37;2.77;;;;;;;;;;4973523;28;20195;-78
2023/12/10 07:50:00;;;;;;;17.43;6.73;;;;;;;;;;4990377;28;20210;-78
2023/12/10 07:52:26;;;;;;;16.30;4.90;;;;;;;;;;4972430;28;20195;-78
2023/12/10 07:54:52;;;;;;;12.30;3.60;;;;;;;;;;4972438;28;20271;-78
2023/12/10 07:57:18;;;;;;;16.80;3.17;;;;;;;;;;4987044;28;20541;-78
2023/12/10 07:59:45;;;;;;;15.53;3.27;;;;;;;;;;4987960;28;20561;-78
2023/12/10 08:02:11;;;;;;;13.70;3.23;;;;;;;;;;4987842;28;20198;-78
2023/12/10 08:04:37;;;;;;;15.80;3.20;;;;;;;;;;4989136;28;20700;-78
2023/12/10 08:07:03;;;;;;;13.60;2.67;;;;;;;;;;4972990;28;20188;-78
2023/12/10 08:09:29;;;;;;;10.47;2.60;;;;;;;;;;4987342;28;20214;-78
2023/12/10 08:11:56;;;;;;;14.70;3.10;;;;;;;;;;4988566;28;20583;-78
2023/12/10 08:14:25;;;;;;;11.83;3.03;;;;;;;;;;4989708;28;20196;-78
2023/12/10 08:16:52;;;;;;;12.67;2.80;;;;;;;;;;4989273;28;20285;-78
2023/12/10 08:19:18;;;;;;;12.40;2.80;;;;;;;;;;4988985;28;20346;-78
2023/12/10 08:21:44;;;;;;;13.77;3.27;;;;;;;;;;4990995;28;20365;-78
2023/12/10 08:24:10;;;;;;;9.30;2.83;;;;;;;;;;4990343;28;20670;-78
2023/12/10 08:26:36;;;;;;;11.37;2.57;;;;;;;;;;4989353;28;20195;-78
2023/12/10 08:29:02;;;;;;;14.77;3.10;;;;;;;;;;4989390;28;20339;-78
2023/12/10 08:31:29;;;;;;;12.70;2.97;;;;;;;;;;4989147;28;20211;-78
2023/12/10 08:33:55;;;;;;;11.47;2.90;;;;;;;;;;4973114;28;20188;-78
2023/12/10 08:36:21;;;;;;;9.47;2.30;;;;;;;;;;4973011;28;20191;-78
2023/12/10 08:38:47;;;;;;;12.00;3.23;;;;;;;;;;4972752;28;20215;-77
2023/12/10 08:41:13;;;;;;;13.30;3.23;;;;;;;;;;4987901;28;20196;-78
2023/12/10 08:43:39;;;;;;;10.17;3.00;;;;;;;;;;4988267;28;20192;-78
2023/12/10 08:46:06;;;;;;;16.67;3.67;;;;;;;;;;4988172;28;20181;-78
2023/12/10 08:48:32;;;;;;;12.23;3.40;;;;;;;;;;4986860;28;20294;-77
2023/12/10 08:50:58;;;;;;;15.03;3.53;;;;;;;;;;4989277;28;20302;-77
2023/12/10 08:53:25;;;;;;;14.27;3.13;;;;;;;;;;4990678;28;20275;-77
2023/12/10 08:55:51;;;;;;;12.37;3.47;;;;;;;;;;4973179;28;20183;-77
2023/12/10 08:58:17;;;;;;;10.67;2.83;;;;;;;;;;4989034;28;20230;-77
2023/12/10 09:00:43;;;;;;;16.40;3.17;;;;;;;;;;4970873;28;20199;-77
2023/12/10 09:03:10;;;;;;;15.63;2.80;;;;;;;;;;4989725;28;20805;-77
2023/12/10 09:05:37;;;;;;;14.27;2.70;;;;;;;;;;4989960;28;20222;-78
2023/12/10 09:08:03;;;;;;;13.27;3.27;;;;;;;;;;4976854;28;20199;-78
2023/12/10 09:10:29;;;;;;;12.20;2.70;;;;;;;;;;4992965;28;20299;-77
2023/12/10 09:12:55;;;;;;;13.00;2.83;;;;;;;;;;4977141;28;20215;-78
2023/12/10 09:15:21;;;;;;;10.70;2.73;;;;;;;;;;4974723;28;20203;-77
2023/12/10 09:17:47;;;;;;;17.90;3.57;;;;;;;;;;4993235;28;20183;-77
2023/12/10 09:20:14;;;;;;;17.50;3.77;;;;;;;;;;4975608;28;20777;-77
2023/12/10 09:22:41;;;;;;;12.67;3.50;;;;;;;;;;4976649;28;20176;-78
2023/12/10 09:25:08;;;;;;;14.53;3.30;;;;;;;;;;4994378;28;20186;-77
2023/12/10 09:27:34;;;;;;;13.87;2.97;;;;;;;;;;4977226;28;20200;-78
2023/12/10 09:30:00;;;;;;;11.13;3.10;;;;;;;;;;4991613;28;20975;-77
2023/12/10 09:32:27;;;;;;;13.07;3.40;;;;;;;;;;4990087;28;20220;-77
2023/12/10 09:34:56;;;;;;;11.03;2.83;;;;;;;;;;4993166;28;20535;-77
2023/12/10 09:37:22;;;;;;;12.63;3.30;;;;;;;;;;4995481;28;20188;-78
2023/12/10 09:39:48;;;;;;;9.27;2.60;;;;;;;;;;4976454;28;20266;-78
2023/12/10 09:42:14;;;;;;;19.60;3.73;;;;;;;;;;4991896;28;20255;-78
2023/12/10 09:44:40;;;;;;;11.50;3.10;;;;;;;;;;4975721;28;20214;-78
2023/12/10 09:47:10;;;;;;;13.03;2.90;;;;;;;;;;4993481;28;20192;-77
2023/12/10 09:49:38;;;;;;;12.10;2.50;;;;;;;;;;4985760;28;20219;-77
2023/12/10 09:52:09;;;;;;;10.53;2.67;;;;;;;;;;4992557;28;20478;-78
2023/12/10 09:54:42;;;;;;;12.07;2.77;;;;;;;;;;4968777;28;20180;-78
2023/12/10 09:57:11;;;;;;;13.07;3.10;;;;;;;;;;4992377;28;20188;-78
2023/12/10 09:59:37;;;;;;;14.97;3.10;;;;;;;;;;4991286;28;20211;-77
2023/12/10 10:02:05;;;;;;;14.37;2.83;;;;;;;;;;4991402;28;20196;-77
2023/12/10 10:04:31;;;;;;;12.00;2.63;;;;;;;;;;4994632;28;20208;-77
2023/12/10 10:06:57;;;;;;;11.77;3.07;;;;;;;;;;4992405;28;20313;-78
2023/12/10 10:09:23;;;;;;;13.37;2.93;;;;;;;;;;4993509;28;20235;-77
2023/12/10 10:11:50;;;;;;;12.00;3.00;;;;;;;;;;4987687;28;20307;-78
2023/12/10 10:14:19;;;;;;;11.87;2.93;;;;;;;;;;4992024;28;20276;-77
2023/12/10 10:16:49;;;;;;;9.67;2.70;;;;;;;;;;4989587;28;20207;-77
2023/12/10 10:19:18;;;;;;;14.07;3.07;;;;;;;;;;4990809;28;20205;-77
2023/12/10 10:21:45;;;;;;;12.97;2.77;;;;;;;;;;4991359;28;20252;-77
2023/12/10 10:24:11;;;;;;;11.73;3.20;;;;;;;;;;4972500;28;20185;-78
2023/12/10 10:26:38;;;;;;;10.50;2.87;;;;;;;;;;4988854;28;20189;-78
2023/12/10 10:29:05;;;;;;;13.13;3.13;;;;;;;;;;4990383;28;20224;-77
2023/12/10 10:31:34;;;;;;;13.73;3.63;;;;;;;;;;4991439;28;20582;-78
2023/12/10 10:34:05;;;;;;;15.47;3.13;;;;;;;;;;4990268;28;20185;-77
2023/12/10 10:36:32;;;;;;;9.87;2.93;;;;;;;;;;4991720;28;20193;-77
2023/12/10 10:38:58;;;;;;;12.20;3.10;;;;;;;;;;4989030;28;20262;-77
2023/12/10 10:41:25;;;;;;;12.50;2.97;;;;;;;;;;4992081;28;20664;-77
2023/12/10 10:43:51;;;;;;;11.97;3.43;;;;;;;;;;4989051;28;20184;-77
2023/12/10 10:46:21;;;;;;;10.17;2.80;;;;;;;;;;4990819;28;20239;-77
2023/12/10 10:48:54;;;;;;;11.00;2.63;;;;;;;;;;4989437;28;20544;-77
2023/12/10 10:51:25;;;;;;;13.63;3.40;;;;;;;;;;4976537;28;20215;-77
2023/12/10 10:53:54;;;;;;;9.17;2.50;;;;;;;;;;4990859;28;20723;-77
2023/12/10 10:56:20;;;;;;;13.20;3.17;;;;;;;;;;4965280;28;20227;-77
2023/12/10 10:58:46;;;;;;;11.30;2.63;;;;;;;;;;4991362;28;20648;-77
2023/12/10 11:01:42;;;;;;;13.23;2.90;;;;;;;;;;4993250;28;20188;-77
2023/12/10 11:04:12;;;;;;;13.53;3.00;;;;;;;;;;4988303;28;20236;-77
2023/12/10 11:06:42;;;;;;;13.03;3.10;;;;;;;;;;4996865;28;20188;-77
2023/12/10 11:09:08;;;;;;;9.53;2.87;;;;;;;;;;4996964;28;20204;-77
2023/12/10 11:11:39;;;;;;;13.23;2.80;;;;;;;;;;4996806;28;20567;-77
2023/12/10 11:14:09;;;;;;;14.47;3.40;;;;;;;;;;4996761;28;20558;-77
2023/12/10 11:16:36;;;;;;;13.67;3.37;;;;;;;;;;4977450;28;20436;-77
2023/12/10 11:19:02;;;;;;;10.03;3.00;;;;;;;;;;4974714;28;20209;-77
2023/12/10 11:21:29;;;;;;;12.70;3.23;;;;;;;;;;4994552;28;20192;-77
2023/12/10 11:23:55;;;;;;;13.63;2.80;;;;;;;;;;4980147;28;20868;-77
2023/12/10 11:26:22;;;;;;;13.83;3.50;;;;;;;;;;4979398;28;20209;-77
2023/12/10 11:28:50;;;;;;;12.33;3.07;;;;;;;;;;4978982;28;20450;-78
2023/12/10 11:31:16;;;;;;;13.60;3.50;;;;;;;;;;4963016;28;20356;-77
2023/12/10 11:33:42;;;;;;;11.10;2.70;;;;;;;;;;4996649;28;20191;-77
2023/12/10 11:36:09;;;;;;;10.43;2.70;;;;;;;;;;4978225;28;20193;-77
2023/12/10 11:38:35;;;;;;;9.47;2.73;;;;;;;;;;4977693;28;20219;-77
2023/12/10 11:41:02;;;;;;;13.80;3.30;;;;;;;;;;4995794;28;20221;-77
2023/12/10 11:43:28;;;;;;;14.17;3.57;;;;;;;;;;4995135;28;20297;-77
2023/12/10 11:45:56;;;;;;;12.03;3.27;;;;;;;;;;4995433;28;20555;-77
2023/12/10 11:48:22;;;;;;;12.53;3.00;;;;;;;;;;4978000;28;20432;-77
2023/12/10 11:50:49;;;;;;;11.67;3.43;;;;;;;;;;4979191;28;20212;-78
2023/12/10 11:53:18;;;;;;;12.63;3.67;;;;;;;;;;4993850;28;20239;-77
2023/12/10 11:55:44;;;;;;;14.80;4.60;;;;;;;;;;4976924;28;20268;-77
2023/12/10 11:58:11;;;;;;;17.17;5.47;;;;;;;;;;4976525;28;20189;-77
2023/12/10 12:00:37;;;;;;;13.07;5.10;;;;;;;;;;4993137;28;20447;-77
2023/12/10 12:03:06;;;;;;;13.13;3.97;;;;;;;;;;4993750;28;20193;-77
2023/12/10 12:05:32;;;;;;;13.17;3.07;;;;;;;;;;4993607;28;20266;-77
2023/12/10 12:07:59;;;;;;;14.00;3.00;;;;;;;;;;4976979;28;20195;-78
2023/12/10 12:10:36;;;;;;;10.73;2.70;;;;;;;;;;4996217;28;20192;-77
2023/12/10 12:13:02;;;;;;;9.20;2.77;;;;;;;;;;4995779;28;20512;-77
2023/12/10 12:15:28;;;;;;;12.50;2.80;;;;;;;;;;4995177;28;20192;-77
2023/12/10 12:17:55;;;;;;;10.03;2.80;;;;;;;;;;4995531;28;20184;-77
2023/12/10 12:20:24;;;;;;;11.60;2.90;;;;;;;;;;4989631;28;20194;-77
2023/12/10 12:22:50;;;;;;;10.50;2.70;;;;;;;;;;4990407;28;20644;-77
2023/12/10 12:25:17;;;;;;;11.50;2.70;;;;;;;;;;4990083;28;20188;-76
2023/12/10 12:27:43;;;;;;;8.77;2.20;;;;;;;;;;4989271;28;20188;-77
2023/12/10 12:30:10;;;;;;;11.33;2.80;;;;;;;;;;4990215;28;20207;-77
2023/12/10 12:32:36;;;;;;;11.03;2.60;;;;;;;;;;4992574;28;20183;-77
2023/12/10 12:35:02;;;;;;;14.07;3.10;;;;;;;;;;4973508;28;20739;-77
2023/12/10 12:37:28;;;;;;;13.37;2.83;;;;;;;;;;4992260;28;20196;-77
2023/12/10 12:39:55;;;;;;;11.83;2.90;;;;;;;;;;4992570;28;20213;-77
2023/12/10 12:42:24;;;;;;;12.47;3.20;;;;;;;;;;4994858;28;20216;-77
2023/12/10 12:44:51;;;;;;;13.40;3.17;;;;;;;;;;4980260;28;20215;-77
2023/12/10 12:47:17;;;;;;;12.20;3.53;;;;;;;;;;4980594;28;20207;-77
2023/12/10 12:49:43;;;;;;;12.30;2.90;;;;;;;;;;4994633;28;20212;-77
2023/12/10 12:52:10;;;;;;;13.33;3.07;;;;;;;;;;4998440;28;20227;-77
2023/12/10 12:54:36;;;;;;;12.87;3.57;;;;;;;;;;4982198;28;20291;-77
2023/12/10 12:57:03;;;;;;;13.50;2.97;;;;;;;;;;4994844;28;20231;-77
2023/12/10 12:59:29;;;;;;;15.13;3.50;;;;;;;;;;4997496;28;20205;-77
2023/12/10 13:01:55;;;;;;;13.03;3.33;;;;;;;;;;4997129;28;20243;-77
2023/12/10 13:04:22;;;;;;;13.27;3.80;;;;;;;;;;4997870;28;20664;-77
2023/12/10 13:06:48;;;;;;;14.63;3.87;;;;;;;;;;4996906;28;20666;-77
2023/12/10 13:09:16;;;;;;;13.87;3.90;;;;;;;;;;4996981;28;20565;-77
2023/12/10 13:11:43;;;;;;;12.97;3.20;;;;;;;;;;4992610;28;20239;-77
2023/12/10 13:14:09;;;;;;;20.63;4.67;;;;;;;;;;4991597;28;20562;-77
2023/12/10 13:16:35;;;;;;;14.07;5.00;;;;;;;;;;4992032;28;20481;-77
2023/12/10 13:19:01;;;;;;;11.43;3.93;;;;;;;;;;4970249;28;20208;-78
2023/12/10 13:21:28;;;;;;;16.50;3.70;;;;;;;;;;4989861;28;20214;-79
2023/12/10 13:23:54;;;;;;;10.83;2.77;;;;;;;;;;4992791;28;20233;-78
2023/12/10 13:26:20;;;;;;;17.10;3.73;;;;;;;;;;4975474;28;20198;-80
2023/12/10 13:28:47;;;;;;;14.17;3.30;;;;;;;;;;4977544;28;20203;-80
2023/12/10 13:31:13;;;;;;;14.93;3.50;;;;;;;;;;4975884;28;20212;-77
2023/12/10 13:33:39;;;;;;;9.47;3.20;;;;;;;;;;4994304;28;20183;-80
2023/12/10 13:36:06;;;;;;;14.10;3.33;;;;;;;;;;4994245;28;20184;-84
2023/12/10 13:38:32;;;;;;;15.37;3.40;;;;;;;;;;4989994;28;20222;-79
2023/12/10 13:40:58;;;;;;;12.10;3.17;;;;;;;;;;4992959;28;20338;-75
2023/12/10 13:43:24;;;;;;;12.93;2.93;;;;;;;;;;4989341;28;20686;-75
2023/12/10 13:45:50;;;;;;;12.87;3.50;;;;;;;;;;4991360;28;20190;-75
2023/12/10 13:48:16;;;;;;;15.57;3.77;;;;;;;;;;4988730;28;20209;-75
2023/12/10 13:50:43;;;;;;;12.03;3.20;;;;;;;;;;4992139;28;20266;-75
2023/12/10 13:53:09;;;;;;;13.60;3.30;;;;;;;;;;4991739;28;20247;-75
2023/12/10 13:55:36;;;;;;;14.83;3.57;;;;;;;;;;4989600;28;20276;-75
2023/12/10 13:58:02;;;;;;;14.83;3.70;;;;;;;;;;4986825;28;20184;-75
2023/12/10 14:00:28;;;;;;;16.67;4.23;;;;;;;;;;4988590;28;20187;-75
2023/12/10 14:02:54;;;;;;;14.50;4.03;;;;;;;;;;4992163;28;20669;-75
2023/12/10 14:05:20;;;;;;;18.53;3.57;;;;;;;;;;4988047;28;20362;-73
2023/12/10 14:07:48;;;;;;;14.33;3.97;;;;;;;;;;4988898;28;20275;-73
2023/12/10 14:10:15;;;;;;;20.10;4.40;;;;;;;;;;4987406;28;20211;-73
2023/12/10 14:12:41;;;;;;;15.23;3.80;;;;;;;;;;4984367;28;20262;-73
2023/12/10 14:15:08;;;;;;;16.00;3.80;;;;;;;;;;4990594;28;20196;-73
2023/12/10 14:17:36;;;;;;;15.13;3.80;;;;;;;;;;4990520;28;20191;-73
2023/12/10 14:20:03;;;;;;;14.30;3.63;;;;;;;;;;4987298;28;20239;-73
2023/12/10 14:22:30;;;;;;;12.43;3.57;;;;;;;;;;4991422;28;20668;-73
2023/12/10 14:24:56;;;;;;;11.57;3.37;;;;;;;;;;4991623;28;20275;-74
2023/12/10 14:27:22;;;;;;;16.53;4.00;;;;;;;;;;4989366;28;20196;-74